sensor_id;sensor_type;location;lat;lon;timestamp;P1;durP1;ratioP1;P2;durP2;ratioP2
43996;SDS011;34318;45.818;15.964;2023-09-08T00:00:52;5.03;;;4.63;;
43996;SDS011;34318;45.818;15.964;2023-09-08T00:03:19;5.93;;;4.80;;
43996;SDS011;34318;45.818;15.964;2023-09-08T00:05:48;7.38;;;5.38;;
43996;SDS011;34318;45.818;15.964;2023-09-08T00:08:15;5.05;;;4.55;;
43996;SDS011;34318;45.818;15.964;2023-09-08T00:10:42;4.50;;;4.10;;
43996;SDS011;34318;45.818;15.964;2023-09-08T00:13:10;6.10;;;4.25;;
43996;SDS011;34318;45.818;15.964;2023-09-08T00:15:37;4.50;;;4.10;;
43996;SDS011;34318;45.818;15.964;2023-09-08T00:18:05;5.20;;;4.70;;
43996;SDS011;34318;45.818;15.964;2023-09-08T00:20:32;4.90;;;4.40;;
43996;SDS011;34318;45.818;15.964;2023-09-08T00:23:01;7.35;;;4.60;;
43996;SDS011;34318;45.818;15.964;2023-09-08T00:25:28;5.05;;;4.53;;
43996;SDS011;34318;45.818;15.964;2023-09-08T00:27:55;4.93;;;4.53;;
43996;SDS011;34318;45.818;15.964;2023-09-08T00:30:22;5.40;;;4.90;;
43996;SDS011;34318;45.818;15.964;2023-09-08T00:32:50;5.10;;;4.68;;
43996;SDS011;34318;45.818;15.964;2023-09-08T00:35:17;5.10;;;4.60;;
43996;SDS011;34318;45.818;15.964;2023-09-08T00:37:45;5.63;;;4.30;;
43996;SDS011;34318;45.818;15.964;2023-09-08T00:40:12;6.68;;;4.60;;
43996;SDS011;34318;45.818;15.964;2023-09-08T00:42:39;5.35;;;4.13;;
43996;SDS011;34318;45.818;15.964;2023-09-08T00:45:07;5.05;;;4.55;;
43996;SDS011;34318;45.818;15.964;2023-09-08T00:47:34;5.00;;;4.50;;
43996;SDS011;34318;45.818;15.964;2023-09-08T00:50:03;5.10;;;4.60;;
43996;SDS011;34318;45.818;15.964;2023-09-08T00:52:30;7.00;;;4.90;;
43996;SDS011;34318;45.818;15.964;2023-09-08T00:54:59;4.72;;;4.32;;
43996;SDS011;34318;45.818;15.964;2023-09-08T00:57:26;5.40;;;4.90;;
43996;SDS011;34318;45.818;15.964;2023-09-08T00:59:53;5.53;;;4.32;;
43996;SDS011;34318;45.818;15.964;2023-09-08T01:02:21;5.68;;;5.18;;
43996;SDS011;34318;45.818;15.964;2023-09-08T01:04:49;5.13;;;4.63;;
43996;SDS011;34318;45.818;15.964;2023-09-08T01:07:19;4.68;;;4.28;;
43996;SDS011;34318;45.818;15.964;2023-09-08T01:09:47;6.20;;;4.40;;
43996;SDS011;34318;45.818;15.964;2023-09-08T01:12:15;5.13;;;4.63;;
43996;SDS011;34318;45.818;15.964;2023-09-08T01:14:43;5.15;;;4.65;;
43996;SDS011;34318;45.818;15.964;2023-09-08T01:17:10;5.78;;;4.65;;
43996;SDS011;34318;45.818;15.964;2023-09-08T01:19:38;5.22;;;4.72;;
43996;SDS011;34318;45.818;15.964;2023-09-08T01:24:38;4.95;;;4.40;;
43996;SDS011;34318;45.818;15.964;2023-09-08T01:27:11;5.28;;;4.78;;
43996;SDS011;34318;45.818;15.964;2023-09-08T01:29:41;5.20;;;4.70;;
43996;SDS011;34318;45.818;15.964;2023-09-08T01:32:08;5.53;;;4.68;;
43996;SDS011;34318;45.818;15.964;2023-09-08T01:34:36;4.75;;;4.35;;
43996;SDS011;34318;45.818;15.964;2023-09-08T01:37:07;5.10;;;4.68;;
43996;SDS011;34318;45.818;15.964;2023-09-08T01:39:34;4.60;;;4.20;;
43996;SDS011;34318;45.818;15.964;2023-09-08T01:42:02;5.03;;;4.53;;
43996;SDS011;34318;45.818;15.964;2023-09-08T01:44:29;5.30;;;4.80;;
43996;SDS011;34318;45.818;15.964;2023-09-08T01:46:57;8.40;;;4.47;;
43996;SDS011;34318;45.818;15.964;2023-09-08T01:49:24;4.88;;;4.47;;
43996;SDS011;34318;45.818;15.964;2023-09-08T01:51:51;5.60;;;4.35;;
43996;SDS011;34318;45.818;15.964;2023-09-08T01:54:19;5.30;;;4.60;;
43996;SDS011;34318;45.818;15.964;2023-09-08T01:56:46;4.70;;;4.20;;
43996;SDS011;34318;45.818;15.964;2023-09-08T01:59:13;5.00;;;4.50;;
43996;SDS011;34318;45.818;15.964;2023-09-08T02:01:41;4.93;;;4.53;;
43996;SDS011;34318;45.818;15.964;2023-09-08T02:04:08;5.03;;;4.53;;
43996;SDS011;34318;45.818;15.964;2023-09-08T02:06:35;5.03;;;4.53;;
43996;SDS011;34318;45.818;15.964;2023-09-08T02:09:03;4.80;;;4.40;;
43996;SDS011;34318;45.818;15.964;2023-09-08T02:11:30;4.70;;;4.30;;
43996;SDS011;34318;45.818;15.964;2023-09-08T02:13:58;5.32;;;4.88;;
43996;SDS011;34318;45.818;15.964;2023-09-08T02:16:25;4.30;;;3.92;;
43996;SDS011;34318;45.818;15.964;2023-09-08T02:18:52;4.70;;;4.30;;
43996;SDS011;34318;45.818;15.964;2023-09-08T02:21:20;4.95;;;4.50;;
43996;SDS011;34318;45.818;15.964;2023-09-08T02:23:48;4.97;;;4.53;;
43996;SDS011;34318;45.818;15.964;2023-09-08T02:26:15;4.53;;;4.13;;
43996;SDS011;34318;45.818;15.964;2023-09-08T02:28:42;4.78;;;4.28;;
43996;SDS011;34318;45.818;15.964;2023-09-08T02:31:10;4.47;;;4.07;;
43996;SDS011;34318;45.818;15.964;2023-09-08T02:33:38;4.55;;;4.15;;
43996;SDS011;34318;45.818;15.964;2023-09-08T02:36:05;4.85;;;4.15;;
43996;SDS011;34318;45.818;15.964;2023-09-08T02:38:33;4.70;;;4.30;;
43996;SDS011;34318;45.818;15.964;2023-09-08T02:41:01;4.50;;;4.10;;
43996;SDS011;34318;45.818;15.964;2023-09-08T02:43:28;4.35;;;3.95;;
43996;SDS011;34318;45.818;15.964;2023-09-08T02:45:56;5.13;;;4.63;;
43996;SDS011;34318;45.818;15.964;2023-09-08T02:48:24;6.05;;;4.28;;
43996;SDS011;34318;45.818;15.964;2023-09-08T02:50:51;4.45;;;4.05;;
43996;SDS011;34318;45.818;15.964;2023-09-08T02:53:20;4.55;;;4.15;;
43996;SDS011;34318;45.818;15.964;2023-09-08T02:55:47;4.55;;;4.18;;
43996;SDS011;34318;45.818;15.964;2023-09-08T02:58:14;4.25;;;3.85;;
43996;SDS011;34318;45.818;15.964;2023-09-08T03:00:42;6.45;;;4.25;;
43996;SDS011;34318;45.818;15.964;2023-09-08T03:03:09;5.22;;;4.47;;
43996;SDS011;34318;45.818;15.964;2023-09-08T03:05:36;4.70;;;4.30;;
43996;SDS011;34318;45.818;15.964;2023-09-08T03:08:04;4.78;;;4.38;;
43996;SDS011;34318;45.818;15.964;2023-09-08T03:10:32;5.57;;;4.38;;
43996;SDS011;34318;45.818;15.964;2023-09-08T03:13:05;4.55;;;4.10;;
43996;SDS011;34318;45.818;15.964;2023-09-08T03:15:34;4.45;;;4.05;;
43996;SDS011;34318;45.818;15.964;2023-09-08T03:18:01;6.07;;;4.80;;
43996;SDS011;34318;45.818;15.964;2023-09-08T03:20:28;5.28;;;4.22;;
43996;SDS011;34318;45.818;15.964;2023-09-08T03:22:55;5.43;;;4.93;;
43996;SDS011;34318;45.818;15.964;2023-09-08T03:25:23;6.20;;;4.75;;
43996;SDS011;34318;45.818;15.964;2023-09-08T03:27:50;5.50;;;4.05;;
43996;SDS011;34318;45.818;15.964;2023-09-08T03:30:19;4.93;;;4.53;;
43996;SDS011;34318;45.818;15.964;2023-09-08T03:32:47;4.70;;;4.18;;
43996;SDS011;34318;45.818;15.964;2023-09-08T03:35:14;4.40;;;4.10;;
43996;SDS011;34318;45.818;15.964;2023-09-08T03:37:42;5.18;;;4.43;;
43996;SDS011;34318;45.818;15.964;2023-09-08T03:40:09;4.55;;;4.13;;
43996;SDS011;34318;45.818;15.964;2023-09-08T03:42:37;5.03;;;4.53;;
43996;SDS011;34318;45.818;15.964;2023-09-08T03:45:04;5.03;;;4.53;;
43996;SDS011;34318;45.818;15.964;2023-09-08T03:47:32;4.65;;;4.25;;
43996;SDS011;34318;45.818;15.964;2023-09-08T03:49:59;4.55;;;4.13;;
43996;SDS011;34318;45.818;15.964;2023-09-08T03:52:27;5.00;;;4.53;;
43996;SDS011;34318;45.818;15.964;2023-09-08T03:54:54;7.38;;;4.47;;
43996;SDS011;34318;45.818;15.964;2023-09-08T03:57:21;5.22;;;4.10;;
43996;SDS011;34318;45.818;15.964;2023-09-08T03:59:48;4.68;;;4.20;;
43996;SDS011;34318;45.818;15.964;2023-09-08T04:02:16;4.30;;;3.90;;
43996;SDS011;34318;45.818;15.964;2023-09-08T04:04:43;4.50;;;4.10;;
43996;SDS011;34318;45.818;15.964;2023-09-08T04:07:10;4.90;;;4.40;;
43996;SDS011;34318;45.818;15.964;2023-09-08T04:09:38;5.22;;;4.75;;
43996;SDS011;34318;45.818;15.964;2023-09-08T04:12:05;4.57;;;4.18;;
43996;SDS011;34318;45.818;15.964;2023-09-08T04:14:35;5.28;;;4.78;;
43996;SDS011;34318;45.818;15.964;2023-09-08T04:17:02;4.63;;;4.00;;
43996;SDS011;34318;45.818;15.964;2023-09-08T04:19:31;4.80;;;4.32;;
43996;SDS011;34318;45.818;15.964;2023-09-08T04:21:58;5.05;;;4.18;;
43996;SDS011;34318;45.818;15.964;2023-09-08T04:24:25;4.78;;;4.38;;
43996;SDS011;34318;45.818;15.964;2023-09-08T04:26:53;4.43;;;4.00;;
43996;SDS011;34318;45.818;15.964;2023-09-08T04:29:20;4.70;;;4.30;;
43996;SDS011;34318;45.818;15.964;2023-09-08T04:31:47;6.22;;;4.45;;
43996;SDS011;34318;45.818;15.964;2023-09-08T04:34:15;4.85;;;4.40;;
43996;SDS011;34318;45.818;15.964;2023-09-08T04:36:42;4.25;;;3.85;;
43996;SDS011;34318;45.818;15.964;2023-09-08T04:39:10;5.28;;;4.45;;
43996;SDS011;34318;45.818;15.964;2023-09-08T04:41:37;5.57;;;4.40;;
43996;SDS011;34318;45.818;15.964;2023-09-08T04:44:05;4.40;;;4.03;;
43996;SDS011;34318;45.818;15.964;2023-09-08T04:46:32;4.82;;;4.43;;
43996;SDS011;34318;45.818;15.964;2023-09-08T04:49:00;5.25;;;4.75;;
43996;SDS011;34318;45.818;15.964;2023-09-08T04:51:28;5.22;;;4.10;;
43996;SDS011;34318;45.818;15.964;2023-09-08T04:53:55;5.32;;;4.60;;
43996;SDS011;34318;45.818;15.964;2023-09-08T04:56:22;6.70;;;4.45;;
43996;SDS011;34318;45.818;15.964;2023-09-08T04:58:50;5.20;;;4.53;;
43996;SDS011;34318;45.818;15.964;2023-09-08T05:01:18;5.43;;;4.28;;
43996;SDS011;34318;45.818;15.964;2023-09-08T05:03:46;4.60;;;4.20;;
43996;SDS011;34318;45.818;15.964;2023-09-08T05:06:13;4.07;;;3.72;;
43996;SDS011;34318;45.818;15.964;2023-09-08T05:08:41;4.90;;;4.38;;
43996;SDS011;34318;45.818;15.964;2023-09-08T05:11:13;4.82;;;4.32;;
43996;SDS011;34318;45.818;15.964;2023-09-08T05:13:41;5.57;;;4.20;;
43996;SDS011;34318;45.818;15.964;2023-09-08T05:16:08;5.93;;;4.97;;
43996;SDS011;34318;45.818;15.964;2023-09-08T05:18:39;4.78;;;4.32;;
43996;SDS011;34318;45.818;15.964;2023-09-08T05:21:07;6.63;;;4.60;;
43996;SDS011;34318;45.818;15.964;2023-09-08T05:23:34;8.80;;;8.00;;
43996;SDS011;34318;45.818;15.964;2023-09-08T05:26:01;21.88;;;19.75;;
43996;SDS011;34318;45.818;15.964;2023-09-08T05:28:29;23.95;;;21.65;;
43996;SDS011;34318;45.818;15.964;2023-09-08T05:30:56;23.77;;;21.58;;
43996;SDS011;34318;45.818;15.964;2023-09-08T05:33:23;20.95;;;18.90;;
43996;SDS011;34318;45.818;15.964;2023-09-08T05:35:51;20.98;;;18.65;;
43996;SDS011;34318;45.818;15.964;2023-09-08T05:38:18;18.10;;;16.02;;
43996;SDS011;34318;45.818;15.964;2023-09-08T05:40:45;16.05;;;14.55;;
43996;SDS011;34318;45.818;15.964;2023-09-08T05:43:13;13.65;;;12.23;;
43996;SDS011;34318;45.818;15.964;2023-09-08T05:45:40;12.15;;;11.07;;
43996;SDS011;34318;45.818;15.964;2023-09-08T05:48:07;11.40;;;10.40;;
43996;SDS011;34318;45.818;15.964;2023-09-08T05:50:35;8.68;;;7.43;;
43996;SDS011;34318;45.818;15.964;2023-09-08T05:53:03;9.00;;;6.32;;
43996;SDS011;34318;45.818;15.964;2023-09-08T05:55:30;8.93;;;5.88;;
43996;SDS011;34318;45.818;15.964;2023-09-08T05:57:58;5.72;;;5.22;;
43996;SDS011;34318;45.818;15.964;2023-09-08T06:00:25;5.40;;;4.90;;
43996;SDS011;34318;45.818;15.964;2023-09-08T06:02:52;7.43;;;4.85;;
43996;SDS011;34318;45.818;15.964;2023-09-08T06:05:20;5.55;;;5.00;;
43996;SDS011;34318;45.818;15.964;2023-09-08T06:07:47;7.28;;;5.03;;
43996;SDS011;34318;45.818;15.964;2023-09-08T06:10:32;5.63;;;4.78;;
43996;SDS011;34318;45.818;15.964;2023-09-08T06:12:59;5.35;;;4.85;;
43996;SDS011;34318;45.818;15.964;2023-09-08T06:15:28;5.70;;;5.07;;
43996;SDS011;34318;45.818;15.964;2023-09-08T06:17:55;5.80;;;5.07;;
43996;SDS011;34318;45.818;15.964;2023-09-08T06:20:23;5.53;;;5.03;;
43996;SDS011;34318;45.818;15.964;2023-09-08T06:22:51;6.40;;;5.35;;
43996;SDS011;34318;45.818;15.964;2023-09-08T06:25:18;9.68;;;5.53;;
43996;SDS011;34318;45.818;15.964;2023-09-08T06:27:45;6.30;;;5.18;;
43996;SDS011;34318;45.818;15.964;2023-09-08T06:30:13;7.55;;;5.15;;
43996;SDS011;34318;45.818;15.964;2023-09-08T06:32:42;6.60;;;5.57;;
43996;SDS011;34318;45.818;15.964;2023-09-08T06:35:10;6.00;;;5.32;;
43996;SDS011;34318;45.818;15.964;2023-09-08T06:37:38;6.75;;;5.05;;
43996;SDS011;34318;45.818;15.964;2023-09-08T06:40:05;6.88;;;5.00;;
43996;SDS011;34318;45.818;15.964;2023-09-08T06:42:33;7.97;;;5.35;;
43996;SDS011;34318;45.818;15.964;2023-09-08T06:45:00;5.85;;;5.07;;
43996;SDS011;34318;45.818;15.964;2023-09-08T06:47:28;5.95;;;5.20;;
43996;SDS011;34318;45.818;15.964;2023-09-08T06:49:55;6.72;;;5.80;;
43996;SDS011;34318;45.818;15.964;2023-09-08T06:52:23;7.35;;;5.43;;
43996;SDS011;34318;45.818;15.964;2023-09-08T06:54:51;6.80;;;5.90;;
43996;SDS011;34318;45.818;15.964;2023-09-08T06:57:18;10.98;;;9.88;;
43996;SDS011;34318;45.818;15.964;2023-09-08T06:59:46;22.27;;;19.92;;
43996;SDS011;34318;45.818;15.964;2023-09-08T07:02:13;28.83;;;26.20;;
43996;SDS011;34318;45.818;15.964;2023-09-08T07:04:41;27.05;;;24.33;;
43996;SDS011;34318;45.818;15.964;2023-09-08T07:07:09;22.00;;;19.90;;
43996;SDS011;34318;45.818;15.964;2023-09-08T07:09:37;17.52;;;15.73;;
43996;SDS011;34318;45.818;15.964;2023-09-08T07:12:04;16.65;;;11.73;;
43996;SDS011;34318;45.818;15.964;2023-09-08T07:14:32;18.13;;;12.80;;
43996;SDS011;34318;45.818;15.964;2023-09-08T07:16:59;27.98;;;25.23;;
43996;SDS011;34318;45.818;15.964;2023-09-08T07:19:27;31.55;;;28.58;;
43996;SDS011;34318;45.818;15.964;2023-09-08T07:21:54;32.78;;;29.75;;
43996;SDS011;34318;45.818;15.964;2023-09-08T07:24:21;23.55;;;21.08;;
43996;SDS011;34318;45.818;15.964;2023-09-08T07:26:50;17.83;;;14.77;;
43996;SDS011;34318;45.818;15.964;2023-09-08T07:29:17;18.08;;;12.50;;
43996;SDS011;34318;45.818;15.964;2023-09-08T07:31:44;12.05;;;10.80;;
43996;SDS011;34318;45.818;15.964;2023-09-08T07:34:12;11.30;;;9.43;;
43996;SDS011;34318;45.818;15.964;2023-09-08T07:36:39;9.73;;;8.73;;
43996;SDS011;34318;45.818;15.964;2023-09-08T07:39:06;9.65;;;8.10;;
43996;SDS011;34318;45.818;15.964;2023-09-08T07:41:34;10.15;;;8.68;;
43996;SDS011;34318;45.818;15.964;2023-09-08T07:44:03;8.10;;;7.30;;
43996;SDS011;34318;45.818;15.964;2023-09-08T07:46:30;10.57;;;9.48;;
43996;SDS011;34318;45.818;15.964;2023-09-08T07:48:58;45.00;;;40.70;;
43996;SDS011;34318;45.818;15.964;2023-09-08T07:51:26;41.42;;;37.58;;
43996;SDS011;34318;45.818;15.964;2023-09-08T07:53:53;40.75;;;37.03;;
43996;SDS011;34318;45.818;15.964;2023-09-08T07:56:22;31.25;;;28.15;;
43996;SDS011;34318;45.818;15.964;2023-09-08T07:58:49;28.77;;;25.88;;
43996;SDS011;34318;45.818;15.964;2023-09-08T08:01:17;32.30;;;29.10;;
43996;SDS011;34318;45.818;15.964;2023-09-08T08:03:44;31.50;;;28.48;;
43996;SDS011;34318;45.818;15.964;2023-09-08T08:06:11;27.52;;;24.60;;
43996;SDS011;34318;45.818;15.964;2023-09-08T08:08:39;24.27;;;21.77;;
43996;SDS011;34318;45.818;15.964;2023-09-08T08:11:13;19.75;;;17.95;;
43996;SDS011;34318;45.818;15.964;2023-09-08T08:13:41;19.50;;;17.73;;
43996;SDS011;34318;45.818;15.964;2023-09-08T08:16:08;19.92;;;17.10;;
43996;SDS011;34318;45.818;15.964;2023-09-08T08:18:36;17.15;;;15.45;;
43996;SDS011;34318;45.818;15.964;2023-09-08T08:21:04;15.85;;;14.35;;
43996;SDS011;34318;45.818;15.964;2023-09-08T08:23:32;14.07;;;12.75;;
43996;SDS011;34318;45.818;15.964;2023-09-08T08:26:00;14.80;;;13.30;;
43996;SDS011;34318;45.818;15.964;2023-09-08T08:28:28;13.93;;;12.40;;
43996;SDS011;34318;45.818;15.964;2023-09-08T08:30:55;14.95;;;13.55;;
43996;SDS011;34318;45.818;15.964;2023-09-08T08:33:23;14.05;;;11.77;;
43996;SDS011;34318;45.818;15.964;2023-09-08T08:35:52;12.95;;;11.63;;
43996;SDS011;34318;45.818;15.964;2023-09-08T08:38:20;12.18;;;10.90;;
43996;SDS011;34318;45.818;15.964;2023-09-08T08:40:48;11.95;;;10.85;;
43996;SDS011;34318;45.818;15.964;2023-09-08T08:43:15;11.30;;;10.30;;
43996;SDS011;34318;45.818;15.964;2023-09-08T08:45:43;11.40;;;9.32;;
43996;SDS011;34318;45.818;15.964;2023-09-08T08:48:11;11.23;;;10.23;;
43996;SDS011;34318;45.818;15.964;2023-09-08T08:50:41;11.80;;;10.27;;
43996;SDS011;34318;45.818;15.964;2023-09-08T08:53:08;11.45;;;9.60;;
43996;SDS011;34318;45.818;15.964;2023-09-08T08:55:36;9.57;;;8.68;;
43996;SDS011;34318;45.818;15.964;2023-09-08T08:58:04;9.15;;;8.35;;
43996;SDS011;34318;45.818;15.964;2023-09-08T09:00:35;9.50;;;8.25;;
43996;SDS011;34318;45.818;15.964;2023-09-08T09:03:04;9.35;;;8.38;;
43996;SDS011;34318;45.818;15.964;2023-09-08T09:05:40;8.80;;;7.90;;
43996;SDS011;34318;45.818;15.964;2023-09-08T09:08:13;8.13;;;7.32;;
43996;SDS011;34318;45.818;15.964;2023-09-08T09:10:40;7.88;;;7.13;;
43996;SDS011;34318;45.818;15.964;2023-09-08T09:13:07;8.30;;;7.22;;
43996;SDS011;34318;45.818;15.964;2023-09-08T09:15:35;7.22;;;6.47;;
43996;SDS011;34318;45.818;15.964;2023-09-08T09:18:03;7.20;;;6.50;;
43996;SDS011;34318;45.818;15.964;2023-09-08T09:20:31;6.80;;;6.20;;
43996;SDS011;34318;45.818;15.964;2023-09-08T09:22:59;7.55;;;6.68;;
43996;SDS011;34318;45.818;15.964;2023-09-08T09:25:30;7.32;;;6.63;;
43996;SDS011;34318;45.818;15.964;2023-09-08T09:27:59;8.18;;;7.40;;
43996;SDS011;34318;45.818;15.964;2023-09-08T09:30:27;7.65;;;6.65;;
43996;SDS011;34318;45.818;15.964;2023-09-08T09:33:03;9.00;;;7.03;;
43996;SDS011;34318;45.818;15.964;2023-09-08T09:36:05;10.73;;;7.18;;
43996;SDS011;34318;45.818;15.964;2023-09-08T09:38:26;7.22;;;6.50;;
43996;SDS011;34318;45.818;15.964;2023-09-08T09:40:53;6.90;;;6.30;;
43996;SDS011;34318;45.818;15.964;2023-09-08T09:43:21;6.60;;;6.00;;
43996;SDS011;34318;45.818;15.964;2023-09-08T09:45:51;7.28;;;6.57;;
43996;SDS011;34318;45.818;15.964;2023-09-08T09:48:20;6.20;;;5.60;;
43996;SDS011;34318;45.818;15.964;2023-09-08T09:50:50;6.82;;;6.05;;
43996;SDS011;34318;45.818;15.964;2023-09-08T09:53:19;5.93;;;5.35;;
43996;SDS011;34318;45.818;15.964;2023-09-08T09:55:47;6.03;;;5.43;;
43996;SDS011;34318;45.818;15.964;2023-09-08T09:58:15;7.22;;;6.28;;
43996;SDS011;34318;45.818;15.964;2023-09-08T10:00:42;6.22;;;5.68;;
43996;SDS011;34318;45.818;15.964;2023-09-08T10:03:15;6.07;;;5.38;;
43996;SDS011;34318;45.818;15.964;2023-09-08T10:05:42;8.30;;;6.93;;
43996;SDS011;34318;45.818;15.964;2023-09-08T10:08:10;6.32;;;5.38;;
43996;SDS011;34318;45.818;15.964;2023-09-08T10:10:37;7.78;;;5.57;;
43996;SDS011;34318;45.818;15.964;2023-09-08T10:13:12;9.23;;;5.68;;
43996;SDS011;34318;45.818;15.964;2023-09-08T10:15:40;8.75;;;6.65;;
43996;SDS011;34318;45.818;15.964;2023-09-08T10:18:09;12.43;;;11.35;;
43996;SDS011;34318;45.818;15.964;2023-09-08T10:20:37;12.70;;;11.57;;
43996;SDS011;34318;45.818;15.964;2023-09-08T10:23:27;12.80;;;11.70;;
43996;SDS011;34318;45.818;15.964;2023-09-08T10:25:56;13.70;;;10.80;;
43996;SDS011;34318;45.818;15.964;2023-09-08T10:28:26;11.10;;;9.77;;
43996;SDS011;34318;45.818;15.964;2023-09-08T10:30:53;9.82;;;8.93;;
43996;SDS011;34318;45.818;15.964;2023-09-08T10:33:21;9.35;;;8.60;;
43996;SDS011;34318;45.818;15.964;2023-09-08T10:35:50;10.98;;;8.02;;
43996;SDS011;34318;45.818;15.964;2023-09-08T10:38:25;8.32;;;7.53;;
43996;SDS011;34318;45.818;15.964;2023-09-08T10:40:53;7.03;;;6.43;;
43996;SDS011;34318;45.818;15.964;2023-09-08T10:43:21;7.82;;;7.13;;
43996;SDS011;34318;45.818;15.964;2023-09-08T10:45:48;8.77;;;7.97;;
43996;SDS011;34318;45.818;15.964;2023-09-08T10:48:15;7.35;;;6.65;;
43996;SDS011;34318;45.818;15.964;2023-09-08T10:50:43;7.80;;;7.00;;
43996;SDS011;34318;45.818;15.964;2023-09-08T10:53:14;6.97;;;6.38;;
43996;SDS011;34318;45.818;15.964;2023-09-08T10:58:11;8.00;;;7.25;;
43996;SDS011;34318;45.818;15.964;2023-09-08T11:00:44;7.20;;;6.10;;
43996;SDS011;34318;45.818;15.964;2023-09-08T11:03:12;7.30;;;6.60;;
43996;SDS011;34318;45.818;15.964;2023-09-08T11:05:41;8.25;;;7.50;;
43996;SDS011;34318;45.818;15.964;2023-09-08T11:08:09;8.23;;;6.80;;
43996;SDS011;34318;45.818;15.964;2023-09-08T11:10:37;6.63;;;5.97;;
43996;SDS011;34318;45.818;15.964;2023-09-08T11:13:07;6.72;;;6.13;;
43996;SDS011;34318;45.818;15.964;2023-09-08T11:15:34;8.23;;;7.43;;
43996;SDS011;34318;45.818;15.964;2023-09-08T11:18:04;11.20;;;8.10;;
43996;SDS011;34318;45.818;15.964;2023-09-08T11:20:33;7.28;;;6.45;;
43996;SDS011;34318;45.818;15.964;2023-09-08T11:23:00;6.43;;;5.80;;
43996;SDS011;34318;45.818;15.964;2023-09-08T11:25:29;9.90;;;8.98;;
43996;SDS011;34318;45.818;15.964;2023-09-08T11:27:56;12.48;;;10.38;;
43996;SDS011;34318;45.818;15.964;2023-09-08T11:30:24;19.20;;;17.50;;
43996;SDS011;34318;45.818;15.964;2023-09-08T11:32:52;15.85;;;14.18;;
43996;SDS011;34318;45.818;15.964;2023-09-08T11:35:19;12.00;;;10.93;;
43996;SDS011;34318;45.818;15.964;2023-09-08T11:37:47;12.60;;;11.35;;
43996;SDS011;34318;45.818;15.964;2023-09-08T11:40:15;10.30;;;9.30;;
43996;SDS011;34318;45.818;15.964;2023-09-08T11:42:45;10.70;;;9.07;;
43996;SDS011;34318;45.818;15.964;2023-09-08T11:45:13;10.82;;;8.05;;
43996;SDS011;34318;45.818;15.964;2023-09-08T11:47:41;14.48;;;13.07;;
43996;SDS011;34318;45.818;15.964;2023-09-08T11:50:09;13.38;;;11.98;;
43996;SDS011;34318;45.818;15.964;2023-09-08T11:52:53;12.95;;;11.75;;
43996;SDS011;34318;45.818;15.964;2023-09-08T11:55:21;12.75;;;11.02;;
43996;SDS011;34318;45.818;15.964;2023-09-08T11:57:50;15.55;;;11.70;;
43996;SDS011;34318;45.818;15.964;2023-09-08T12:00:21;10.80;;;8.98;;
43996;SDS011;34318;45.818;15.964;2023-09-08T12:02:49;11.05;;;8.32;;
43996;SDS011;34318;45.818;15.964;2023-09-08T12:07:51;8.82;;;7.13;;
43996;SDS011;34318;45.818;15.964;2023-09-08T12:10:18;8.05;;;6.30;;
43996;SDS011;34318;45.818;15.964;2023-09-08T12:12:50;8.60;;;6.40;;
43996;SDS011;34318;45.818;15.964;2023-09-08T12:17:59;8.30;;;7.50;;
43996;SDS011;34318;45.818;15.964;2023-09-08T12:20:27;7.70;;;7.00;;
43996;SDS011;34318;45.818;15.964;2023-09-08T12:22:56;8.38;;;6.70;;
43996;SDS011;34318;45.818;15.964;2023-09-08T12:25:24;7.00;;;6.30;;
43996;SDS011;34318;45.818;15.964;2023-09-08T12:27:54;7.13;;;5.72;;
43996;SDS011;34318;45.818;15.964;2023-09-08T12:30:22;8.13;;;6.85;;
43996;SDS011;34318;45.818;15.964;2023-09-08T12:32:59;6.93;;;6.03;;
43996;SDS011;34318;45.818;15.964;2023-09-08T12:35:26;7.13;;;5.97;;
43996;SDS011;34318;45.818;15.964;2023-09-08T12:38:04;9.45;;;6.38;;
43996;SDS011;34318;45.818;15.964;2023-09-08T12:40:35;9.93;;;7.07;;
43996;SDS011;34318;45.818;15.964;2023-09-08T12:43:03;7.68;;;5.75;;
43996;SDS011;34318;45.818;15.964;2023-09-08T12:45:47;6.30;;;5.70;;
43996;SDS011;34318;45.818;15.964;2023-09-08T12:48:14;6.47;;;5.55;;
43996;SDS011;34318;45.818;15.964;2023-09-08T12:50:41;10.13;;;7.68;;
43996;SDS011;34318;45.818;15.964;2023-09-08T12:53:09;7.75;;;7.03;;
43996;SDS011;34318;45.818;15.964;2023-09-08T12:55:36;15.10;;;12.43;;
43996;SDS011;34318;45.818;15.964;2023-09-08T12:58:03;12.02;;;10.80;;
43996;SDS011;34318;45.818;15.964;2023-09-08T13:00:31;9.75;;;8.95;;
43996;SDS011;34318;45.818;15.964;2023-09-08T13:02:58;9.73;;;8.88;;
43996;SDS011;34318;45.818;15.964;2023-09-08T13:05:26;8.13;;;7.38;;
43996;SDS011;34318;45.818;15.964;2023-09-08T13:07:54;9.95;;;6.78;;
43996;SDS011;34318;45.818;15.964;2023-09-08T13:10:21;8.00;;;6.82;;
43996;SDS011;34318;45.818;15.964;2023-09-08T13:12:48;7.30;;;6.60;;
43996;SDS011;34318;45.818;15.964;2023-09-08T13:15:16;8.13;;;7.32;;
43996;SDS011;34318;45.818;15.964;2023-09-08T13:17:43;10.00;;;9.20;;
43996;SDS011;34318;45.818;15.964;2023-09-08T13:20:11;11.77;;;10.65;;
43996;SDS011;34318;45.818;15.964;2023-09-08T13:22:38;10.20;;;9.30;;
43996;SDS011;34318;45.818;15.964;2023-09-08T13:25:06;9.98;;;9.07;;
43996;SDS011;34318;45.818;15.964;2023-09-08T13:27:33;8.18;;;7.32;;
43996;SDS011;34318;45.818;15.964;2023-09-08T13:30:13;8.43;;;7.63;;
43996;SDS011;34318;45.818;15.964;2023-09-08T13:32:42;7.45;;;6.75;;
43996;SDS011;34318;45.818;15.964;2023-09-08T13:35:10;7.43;;;6.82;;
43996;SDS011;34318;45.818;15.964;2023-09-08T13:37:38;8.00;;;7.28;;
43996;SDS011;34318;45.818;15.964;2023-09-08T13:40:06;6.53;;;6.03;;
43996;SDS011;34318;45.818;15.964;2023-09-08T13:42:35;12.65;;;11.48;;
43996;SDS011;34318;45.818;15.964;2023-09-08T13:45:02;15.70;;;14.32;;
43996;SDS011;34318;45.818;15.964;2023-09-08T13:47:30;15.07;;;13.80;;
43996;SDS011;34318;45.818;15.964;2023-09-08T13:49:59;13.60;;;12.20;;
43996;SDS011;34318;45.818;15.964;2023-09-08T13:52:28;11.23;;;10.23;;
43996;SDS011;34318;45.818;15.964;2023-09-08T13:54:58;10.75;;;9.75;;
43996;SDS011;34318;45.818;15.964;2023-09-08T13:57:45;9.98;;;8.40;;
43996;SDS011;34318;45.818;15.964;2023-09-08T14:00:16;8.05;;;7.20;;
43996;SDS011;34318;45.818;15.964;2023-09-08T14:02:49;7.60;;;6.88;;
43996;SDS011;34318;45.818;15.964;2023-09-08T14:05:22;8.05;;;7.25;;
43996;SDS011;34318;45.818;15.964;2023-09-08T14:07:54;6.95;;;6.25;;
43996;SDS011;34318;45.818;15.964;2023-09-08T14:10:32;9.50;;;6.18;;
43996;SDS011;34318;45.818;15.964;2023-09-08T14:13:07;5.85;;;5.40;;
43996;SDS011;34318;45.818;15.964;2023-09-08T14:15:34;6.72;;;5.70;;
43996;SDS011;34318;45.818;15.964;2023-09-08T14:18:01;6.38;;;5.43;;
43996;SDS011;34318;45.818;15.964;2023-09-08T14:20:29;6.95;;;5.80;;
43996;SDS011;34318;45.818;15.964;2023-09-08T14:22:56;6.93;;;5.80;;
43996;SDS011;34318;45.818;15.964;2023-09-08T14:25:23;6.82;;;4.93;;
43996;SDS011;34318;45.818;15.964;2023-09-08T14:27:51;6.07;;;5.20;;
43996;SDS011;34318;45.818;15.964;2023-09-08T14:30:18;6.20;;;5.68;;
43996;SDS011;34318;45.818;15.964;2023-09-08T14:32:45;6.28;;;5.00;;
43996;SDS011;34318;45.818;15.964;2023-09-08T14:35:13;6.80;;;5.03;;
43996;SDS011;34318;45.818;15.964;2023-09-08T14:37:40;5.38;;;4.88;;
43996;SDS011;34318;45.818;15.964;2023-09-08T14:40:07;6.30;;;5.03;;
43996;SDS011;34318;45.818;15.964;2023-09-08T14:42:34;5.93;;;5.28;;
43996;SDS011;34318;45.818;15.964;2023-09-08T14:45:02;7.15;;;5.38;;